createdAt,value
2023-05-14T00:02:14.065Z,99.90
2023-05-14T00:04:41.094Z,99.90
2023-05-14T00:07:08.064Z,99.90
2023-05-14T00:09:35.519Z,99.90
2023-05-14T00:12:02.504Z,99.90
2023-05-14T00:14:29.413Z,99.90
2023-05-14T00:16:56.367Z,99.90
2023-05-14T00:19:23.277Z,99.90
2023-05-14T00:21:50.091Z,99.90
2023-05-14T00:24:17.021Z,99.90
2023-05-14T00:26:43.998Z,99.90
2023-05-14T00:29:11.127Z,99.90
2023-05-14T00:31:38.084Z,99.90
2023-05-14T00:34:05.032Z,99.90
2023-05-14T00:36:31.960Z,99.90
2023-05-14T00:38:58.853Z,99.90
2023-05-14T00:41:25.775Z,99.90
2023-05-14T00:43:52.641Z,99.90
2023-05-14T00:46:19.899Z,99.90
2023-05-14T00:48:46.965Z,99.90
2023-05-14T00:51:14.073Z,99.90
2023-05-14T00:53:41.547Z,99.90
2023-05-14T00:56:09.484Z,99.90
2023-05-14T00:58:36.468Z,99.90
2023-05-14T01:01:03.509Z,99.90
2023-05-14T01:03:32.195Z,99.90
2023-05-14T01:06:46.035Z,99.90
2023-05-14T01:10:02.558Z,99.90
2023-05-14T01:13:06.600Z,99.90
2023-05-14T01:15:37.754Z,99.90
2023-05-14T01:18:12.631Z,99.90
2023-05-14T01:20:39.507Z,99.90
2023-05-14T01:23:06.326Z,99.90
2023-05-14T01:25:33.755Z,99.90
2023-05-14T01:28:19.753Z,99.90
2023-05-14T01:31:16.314Z,99.90
2023-05-14T01:33:44.766Z,99.90
2023-05-14T01:36:12.094Z,99.90
2023-05-14T01:38:39.794Z,99.90
2023-05-14T01:41:07.320Z,99.90
2023-05-14T01:43:35.311Z,99.90
2023-05-14T01:46:02.211Z,99.90
2023-05-14T01:48:30.031Z,99.90
2023-05-14T01:50:56.983Z,99.90
2023-05-14T01:53:23.945Z,99.90
2023-05-14T01:55:50.840Z,99.90
2023-05-14T01:58:17.690Z,99.90
2023-05-14T02:00:44.553Z,99.90
2023-05-14T02:03:11.441Z,99.90
2023-05-14T02:05:38.381Z,99.90
2023-05-14T02:08:05.680Z,99.90
2023-05-14T02:10:32.483Z,99.90
2023-05-14T02:12:59.332Z,99.90
2023-05-14T02:15:26.190Z,99.90
2023-05-14T02:17:53.130Z,99.90
2023-05-14T02:20:20.028Z,99.90
2023-05-14T02:22:46.963Z,99.90
2023-05-14T02:25:13.860Z,99.90
2023-05-14T02:27:40.709Z,99.90
2023-05-14T02:30:08.452Z,99.90
2023-05-14T02:32:35.657Z,99.90
2023-05-14T02:35:02.643Z,99.90
2023-05-14T02:37:29.733Z,99.90
2023-05-14T02:39:56.656Z,99.90
2023-05-14T02:42:23.483Z,99.90
2023-05-14T02:44:52.259Z,99.90
2023-05-14T02:47:19.423Z,99.90
2023-05-14T02:49:46.404Z,99.90
2023-05-14T02:52:13.294Z,99.90
2023-05-14T02:54:40.164Z,99.90
2023-05-14T02:57:07.061Z,99.90
2023-05-14T02:59:33.946Z,99.90
2023-05-14T03:02:01.123Z,99.90
2023-05-14T03:04:28.454Z,99.90
2023-05-14T03:06:55.390Z,99.90
2023-05-14T03:09:22.182Z,99.90
2023-05-14T03:11:50.900Z,99.90
2023-05-14T03:14:17.738Z,99.90
2023-05-14T03:16:44.670Z,99.90
2023-05-14T03:19:11.491Z,99.90
2023-05-14T03:21:38.544Z,99.90
2023-05-14T03:24:08.210Z,99.90
2023-05-14T03:26:35.169Z,99.90
2023-05-14T03:29:03.224Z,99.90
2023-05-14T03:31:30.119Z,99.90
2023-05-14T03:33:57.144Z,99.90
2023-05-14T03:36:23.986Z,99.90
2023-05-14T03:38:50.824Z,99.90
2023-05-14T03:41:19.153Z,99.90
2023-05-14T03:43:46.010Z,99.90
2023-05-14T03:46:12.817Z,99.90
2023-05-14T03:48:39.646Z,99.90
2023-05-14T03:51:06.594Z,99.90
2023-05-14T03:53:34.067Z,99.90
2023-05-14T03:56:04.029Z,99.90
2023-05-14T03:58:30.978Z,99.90
2023-05-14T04:00:57.935Z,99.90
2023-05-14T04:03:24.913Z,99.90
2023-05-14T04:05:52.072Z,99.90
2023-05-14T04:08:18.934Z,99.90
2023-05-14T04:10:45.815Z,99.90
2023-05-14T04:13:12.783Z,99.90
2023-05-14T04:15:39.997Z,99.90
2023-05-14T04:18:06.922Z,99.90
2023-05-14T04:20:33.923Z,99.90
2023-05-14T04:23:00.827Z,99.90
2023-05-14T04:25:27.793Z,99.90
2023-05-14T04:27:54.647Z,99.90
2023-05-14T04:30:21.851Z,99.90
2023-05-14T04:32:48.907Z,99.90
2023-05-14T04:35:15.930Z,99.90
2023-05-14T04:37:42.755Z,99.90
2023-05-14T04:40:13.270Z,99.90
2023-05-14T04:42:40.054Z,99.90
2023-05-14T04:45:08.817Z,99.90
2023-05-14T04:47:35.972Z,99.90
2023-05-14T04:50:02.985Z,99.90
2023-05-14T04:52:29.878Z,99.90
2023-05-14T04:54:57.014Z,99.90
2023-05-14T04:57:23.916Z,99.90
2023-05-14T04:59:50.752Z,99.90
2023-05-14T05:02:17.650Z,99.90
2023-05-14T05:04:44.527Z,99.90
2023-05-14T05:07:11.433Z,99.90
2023-05-14T05:09:38.228Z,99.90
2023-05-14T05:12:05.882Z,99.90
2023-05-14T05:14:32.909Z,99.90
2023-05-14T05:16:59.855Z,99.90
2023-05-14T05:19:39.607Z,99.90
2023-05-14T05:22:10.368Z,99.90
2023-05-14T05:24:37.188Z,99.90
2023-05-14T05:27:05.506Z,99.90
2023-05-14T05:29:32.556Z,99.90
2023-05-14T05:31:59.782Z,99.90
2023-05-14T05:34:27.002Z,99.90
2023-05-14T05:36:53.870Z,99.90
2023-05-14T05:39:20.737Z,99.90
2023-05-14T05:41:47.545Z,99.90
2023-05-14T05:44:14.375Z,99.90
2023-05-14T05:46:41.366Z,99.90
2023-05-14T05:49:08.241Z,99.90
2023-05-14T05:51:35.165Z,99.90
2023-05-14T05:54:02.028Z,99.90
2023-05-14T05:56:28.886Z,99.90
2023-05-14T05:58:55.826Z,99.90
2023-05-14T06:01:22.895Z,99.90
2023-05-14T06:03:49.781Z,99.90
2023-05-14T06:06:16.790Z,99.90
2023-05-14T06:08:43.624Z,99.90
2023-05-14T06:11:10.741Z,99.90
2023-05-14T06:13:37.744Z,99.90
2023-05-14T06:16:04.921Z,99.90
2023-05-14T06:18:31.949Z,99.90
2023-05-14T06:21:00.238Z,99.90
2023-05-14T06:23:27.329Z,99.90
2023-05-14T06:25:54.295Z,99.90
2023-05-14T06:28:21.123Z,99.90
2023-05-14T06:30:50.647Z,99.90
2023-05-14T06:33:19.399Z,99.90
2023-05-14T06:35:47.459Z,99.90
2023-05-14T06:38:14.328Z,99.90
2023-05-14T06:40:41.149Z,99.90
2023-05-14T06:43:08.050Z,99.60
2023-05-14T06:45:34.896Z,97.60
2023-05-14T06:48:01.907Z,96.60
2023-05-14T06:50:28.993Z,97.10
2023-05-14T06:52:55.851Z,96.60
2023-05-14T06:55:22.941Z,95.70
2023-05-14T06:57:50.674Z,94.70
2023-05-14T07:00:18.221Z,94.40
2023-05-14T07:02:45.137Z,93.60
2023-05-14T07:05:12.056Z,92.90
2023-05-14T07:07:38.962Z,92.20
2023-05-14T07:10:08.147Z,91.60
2023-05-14T07:12:35.026Z,89.50
2023-05-14T07:15:01.883Z,85.20
2023-05-14T07:17:28.853Z,87.20
2023-05-14T07:19:56.017Z,79.40
2023-05-14T07:22:22.974Z,71.70
2023-05-14T07:24:50.326Z,76.50
2023-05-14T07:27:17.450Z,77.60
2023-05-14T07:29:44.552Z,75.80
2023-05-14T07:32:13.977Z,71.80
2023-05-14T07:34:42.595Z,76.30
2023-05-14T07:37:09.708Z,76.00
2023-05-14T07:39:36.609Z,78.90
2023-05-14T07:42:04.790Z,82.50
2023-05-14T07:44:31.697Z,84.50
2023-05-14T07:46:58.626Z,85.90
2023-05-14T07:49:25.628Z,87.50
2023-05-14T07:51:52.498Z,88.80
2023-05-14T07:54:19.387Z,87.70
2023-05-14T07:56:46.232Z,86.30
2023-05-14T07:59:13.413Z,88.30
2023-05-14T08:01:40.639Z,89.40
2023-05-14T08:04:08.205Z,89.70
2023-05-14T08:06:35.163Z,87.40
2023-05-14T08:09:02.124Z,86.80
2023-05-14T08:11:29.033Z,84.30
2023-05-14T08:13:56.442Z,85.20
2023-05-14T08:16:23.622Z,83.00
2023-05-14T08:18:50.725Z,79.20
2023-05-14T08:21:17.829Z,78.20
2023-05-14T08:23:53.679Z,75.70
2023-05-14T08:26:21.575Z,78.20
2023-05-14T08:28:48.480Z,80.80
2023-05-14T08:31:15.572Z,77.10
2023-05-14T08:33:42.437Z,78.70
2023-05-14T08:36:09.531Z,76.90
2023-05-14T08:38:36.452Z,76.30
2023-05-14T08:41:06.336Z,78.60
2023-05-14T08:44:13.456Z,70.00
2023-05-14T08:46:41.864Z,74.60
2023-05-14T08:49:30.155Z,74.00
2023-05-14T08:51:57.582Z,73.50
2023-05-14T08:54:26.259Z,74.30
2023-05-14T08:56:53.910Z,74.20
2023-05-14T08:59:20.932Z,71.50
2023-05-14T09:01:53.176Z,74.30
2023-05-14T09:04:23.316Z,70.60
2023-05-14T09:06:53.686Z,70.10
2023-05-14T09:09:24.168Z,70.80
2023-05-14T09:11:55.394Z,72.20
2023-05-14T09:14:23.354Z,71.40
2023-05-14T09:16:51.784Z,70.30
2023-05-14T09:19:19.807Z,74.50
2023-05-14T09:21:49.562Z,73.20
2023-05-14T09:24:26.005Z,72.20
2023-05-14T09:26:56.316Z,70.10
2023-05-14T09:29:31.239Z,70.70
2023-05-14T09:32:02.263Z,72.10
2023-05-14T09:34:38.001Z,74.00
2023-05-14T09:37:08.269Z,71.90
2023-05-14T09:39:37.533Z,73.90
2023-05-14T09:42:05.285Z,70.50
2023-05-14T09:44:32.285Z,68.10
2023-05-14T09:46:59.371Z,64.00
2023-05-14T09:49:26.292Z,70.80
2023-05-14T09:51:53.374Z,71.10
2023-05-14T09:54:20.347Z,65.90
2023-05-14T09:56:47.445Z,59.30
2023-05-14T09:59:14.991Z,61.80
2023-05-14T10:01:44.278Z,59.20
2023-05-14T10:04:12.748Z,62.30
2023-05-14T10:06:42.136Z,60.30
2023-05-14T10:09:14.257Z,58.30
2023-05-14T10:11:45.546Z,59.40
2023-05-14T10:14:26.607Z,58.70
2023-05-14T10:16:57.148Z,57.90
2023-05-14T10:19:25.666Z,61.60
2023-05-14T10:22:07.048Z,60.20
2023-05-14T10:24:35.879Z,59.40
2023-05-14T10:27:03.117Z,65.20
2023-05-14T10:29:38.012Z,62.00
2023-05-14T10:32:08.141Z,64.30
2023-05-14T10:34:44.293Z,61.00
2023-05-14T10:37:21.820Z,61.10
2023-05-14T10:40:01.448Z,65.10
2023-05-14T10:42:35.846Z,66.60
2023-05-14T10:45:07.502Z,68.40
2023-05-14T10:47:40.413Z,67.10
2023-05-14T10:50:10.540Z,65.70
2023-05-14T10:52:38.025Z,63.00
2023-05-14T10:55:07.756Z,65.40
2023-05-14T10:57:39.139Z,64.10
2023-05-14T11:00:08.924Z,65.50
2023-05-14T11:02:38.735Z,65.50
2023-05-14T11:05:13.757Z,64.80
2023-05-14T11:07:42.768Z,64.70
2023-05-14T11:10:14.896Z,65.90
2023-05-14T11:12:47.580Z,67.60
2023-05-14T11:15:20.178Z,64.60
2023-05-14T11:17:49.785Z,68.80
2023-05-14T11:20:18.403Z,70.30
2023-05-14T11:22:48.228Z,69.30
2023-05-14T11:25:15.871Z,68.00
2023-05-14T11:27:47.681Z,66.90
2023-05-14T11:30:19.965Z,68.10
2023-05-14T11:32:48.962Z,68.00
2023-05-14T11:35:17.036Z,68.60
2023-05-14T11:37:51.400Z,69.60
2023-05-14T11:40:18.971Z,67.40
2023-05-14T11:42:45.971Z,69.30
2023-05-14T11:45:14.459Z,70.40
2023-05-14T11:47:42.840Z,71.60
2023-05-14T11:50:11.138Z,72.50
2023-05-14T11:52:41.611Z,72.30
2023-05-14T11:55:12.716Z,71.40
2023-05-14T11:57:41.039Z,72.30
2023-05-14T12:00:21.565Z,72.50
2023-05-14T12:02:49.925Z,72.70
2023-05-14T12:05:17.161Z,73.40
2023-05-14T12:07:48.091Z,73.20
2023-05-14T12:10:15.267Z,71.10
2023-05-14T12:12:47.769Z,69.20
2023-05-14T12:15:19.274Z,73.00
2023-05-14T12:17:52.539Z,74.40
2023-05-14T12:20:19.584Z,72.60
2023-05-14T12:22:46.552Z,70.40
2023-05-14T12:25:14.294Z,72.20
2023-05-14T12:27:44.769Z,72.80
2023-05-14T12:30:21.184Z,74.10
2023-05-14T12:32:51.609Z,74.30
2023-05-14T12:35:19.067Z,73.40
2023-05-14T12:37:46.146Z,75.10
2023-05-14T12:40:13.350Z,75.10
2023-05-14T12:42:40.372Z,74.70
2023-05-14T12:45:08.651Z,70.20
2023-05-14T12:47:37.059Z,65.90
2023-05-14T12:50:05.207Z,69.80
2023-05-14T12:55:04.256Z,71.90
2023-05-14T12:57:31.257Z,71.20
2023-05-14T12:59:58.295Z,69.10
2023-05-14T13:02:25.180Z,71.70
2023-05-14T13:04:52.020Z,71.40
2023-05-14T13:07:19.093Z,71.10
2023-05-14T13:09:45.924Z,71.60
2023-05-14T13:12:12.800Z,71.70
2023-05-14T13:14:39.637Z,71.70
2023-05-14T13:17:08.126Z,70.10
2023-05-14T13:19:35.420Z,70.90
2023-05-14T13:22:02.332Z,68.80
2023-05-14T13:24:29.212Z,66.40
2023-05-14T13:26:56.184Z,66.90
2023-05-14T13:29:24.401Z,61.00
2023-05-14T13:31:51.283Z,65.00
2023-05-14T13:34:18.603Z,66.30
2023-05-14T13:36:46.885Z,65.50
2023-05-14T13:39:14.534Z,74.00
2023-05-14T13:41:41.836Z,83.40
2023-05-14T13:44:08.754Z,77.00
2023-05-14T13:46:35.773Z,77.80
2023-05-14T13:49:02.698Z,77.70
2023-05-14T13:51:29.588Z,78.20
2023-05-14T13:53:56.667Z,80.20
2023-05-14T13:56:23.632Z,78.70
2023-05-14T13:58:50.576Z,77.30
2023-05-14T14:01:17.676Z,76.90
2023-05-14T14:03:44.489Z,77.30
2023-05-14T14:06:12.644Z,75.00
2023-05-14T14:08:39.432Z,76.80
2023-05-14T14:11:06.333Z,76.50
2023-05-14T14:13:33.293Z,77.30
2023-05-14T14:16:00.264Z,76.80
2023-05-14T14:18:27.237Z,76.80
2023-05-14T14:20:54.135Z,75.90
2023-05-14T14:23:21.353Z,76.50
2023-05-14T14:25:48.287Z,75.80
2023-05-14T14:28:15.342Z,75.50
2023-05-14T14:30:43.825Z,74.90
2023-05-14T14:33:11.363Z,75.70
2023-05-14T14:35:38.543Z,75.30
2023-05-14T14:38:05.747Z,77.30
2023-05-14T14:40:34.265Z,75.70
2023-05-14T14:43:02.196Z,75.00
2023-05-14T14:45:29.571Z,75.20
2023-05-14T14:48:39.892Z,75.20
2023-05-14T14:51:08.877Z,74.60
2023-05-14T14:53:37.227Z,76.00
2023-05-14T14:56:04.968Z,73.80
2023-05-14T14:58:32.155Z,73.10
2023-05-14T15:01:01.114Z,72.60
2023-05-14T15:03:28.776Z,72.60
2023-05-14T15:05:56.002Z,72.20
2023-05-14T15:08:27.421Z,72.90
2023-05-14T15:10:56.231Z,72.20
2023-05-14T15:13:24.026Z,72.40
2023-05-14T15:15:52.462Z,72.90
2023-05-14T15:18:19.567Z,73.40
2023-05-14T15:20:46.528Z,73.70
2023-05-14T15:23:13.464Z,74.40
2023-05-14T15:25:40.442Z,75.50
2023-05-14T15:28:07.762Z,76.40
2023-05-14T15:30:34.791Z,76.10
2023-05-14T15:33:01.840Z,76.60
2023-05-14T15:35:28.869Z,76.10
2023-05-14T15:37:59.585Z,77.00
2023-05-14T15:40:28.043Z,77.30
2023-05-14T15:42:54.964Z,77.60
2023-05-14T15:45:21.851Z,77.70
2023-05-14T15:47:48.826Z,78.40
2023-05-14T15:50:15.928Z,79.60
2023-05-14T15:52:42.838Z,79.40
2023-05-14T15:55:10.379Z,80.40
2023-05-14T15:57:37.551Z,81.00
2023-05-14T16:00:10.999Z,81.70
2023-05-14T16:02:39.548Z,81.70
2023-05-14T16:05:08.352Z,81.60
2023-05-14T16:07:36.142Z,81.40
2023-05-14T16:10:03.501Z,80.80
2023-05-14T16:12:30.538Z,81.20
2023-05-14T16:14:57.714Z,80.10
2023-05-14T16:17:26.928Z,79.60
2023-05-14T16:19:56.239Z,76.90
2023-05-14T16:22:23.677Z,78.00
2023-05-14T16:24:50.694Z,78.20
2023-05-14T16:27:19.141Z,78.50
2023-05-14T16:29:46.153Z,78.40
2023-05-14T16:32:13.335Z,78.80
2023-05-14T16:34:40.585Z,79.00
2023-05-14T16:37:08.080Z,78.20
2023-05-14T16:39:34.929Z,79.00
2023-05-14T16:42:01.735Z,78.30
2023-05-14T16:44:28.594Z,78.20
2023-05-14T16:46:56.305Z,79.00
2023-05-14T16:49:23.220Z,79.10
2023-05-14T16:51:50.198Z,78.80
2023-05-14T16:54:17.021Z,78.50
2023-05-14T16:56:48.094Z,78.80
2023-05-14T16:59:16.143Z,79.20
2023-05-14T17:01:47.938Z,79.20
2023-05-14T17:04:15.161Z,80.20
2023-05-14T17:06:41.997Z,81.30
2023-05-14T17:09:08.895Z,81.50
2023-05-14T17:11:35.994Z,81.40
2023-05-14T17:14:02.847Z,81.60
2023-05-14T17:16:29.780Z,82.00
2023-05-14T17:18:56.675Z,82.30
2023-05-14T17:21:23.688Z,82.40
2023-05-14T17:23:50.696Z,83.00
2023-05-14T17:26:17.688Z,83.80
2023-05-14T17:28:44.582Z,85.20
2023-05-14T17:31:11.468Z,86.50
2023-05-14T17:33:38.429Z,88.40
2023-05-14T17:36:05.753Z,88.70
2023-05-14T17:38:32.593Z,87.30
2023-05-14T17:40:59.499Z,89.30
2023-05-14T17:43:26.402Z,89.20
2023-05-14T17:45:54.742Z,89.20
2023-05-14T17:48:23.119Z,90.10
2023-05-14T17:50:51.791Z,90.40
2023-05-14T17:53:18.899Z,90.60
2023-05-14T17:55:45.920Z,91.70
2023-05-14T17:58:15.433Z,92.10
2023-05-14T18:00:43.707Z,93.10
2023-05-14T18:03:11.519Z,93.50
2023-05-14T18:05:38.775Z,93.70
2023-05-14T18:08:05.820Z,95.70
2023-05-14T18:10:32.784Z,95.20
2023-05-14T18:12:59.793Z,94.70
2023-05-14T18:15:27.459Z,95.50
2023-05-14T18:17:54.786Z,97.50
2023-05-14T18:20:21.924Z,97.50
2023-05-14T18:22:50.548Z,96.90
2023-05-14T18:25:17.630Z,97.30
2023-05-14T18:27:45.331Z,96.70
2023-05-14T18:30:14.864Z,96.70
2023-05-14T18:32:44.369Z,96.70
2023-05-14T18:35:12.853Z,96.80
2023-05-14T18:37:40.796Z,96.80
2023-05-14T18:40:08.938Z,96.90
2023-05-14T18:42:36.127Z,97.10
2023-05-14T18:45:04.263Z,97.30
2023-05-14T18:47:32.337Z,97.40
2023-05-14T18:50:01.656Z,97.70
2023-05-14T18:52:29.472Z,98.00
2023-05-14T18:54:56.596Z,98.10
2023-05-14T18:57:23.674Z,98.40
2023-05-14T18:59:50.585Z,98.50
2023-05-14T19:02:17.509Z,98.90
2023-05-14T19:04:52.217Z,98.80
2023-05-14T19:07:21.429Z,98.80
2023-05-14T19:09:48.894Z,98.90
2023-05-14T19:12:16.138Z,99.00
2023-05-14T19:14:43.153Z,99.10
2023-05-14T19:17:10.400Z,99.10
2023-05-14T19:19:37.861Z,99.20
2023-05-14T19:22:05.499Z,99.30
2023-05-14T19:24:32.519Z,99.30
2023-05-14T19:26:59.459Z,99.40
2023-05-14T19:29:26.491Z,99.50
2023-05-14T19:31:53.454Z,99.60
2023-05-14T19:34:20.491Z,99.60
2023-05-14T19:36:47.392Z,99.80
2023-05-14T19:39:14.303Z,99.90
2023-05-14T19:41:41.187Z,99.90
2023-05-14T19:44:08.054Z,99.90
2023-05-14T19:46:35.106Z,99.90
2023-05-14T19:49:01.976Z,99.90
2023-05-14T19:51:28.983Z,99.90
2023-05-14T19:53:55.876Z,99.90
2023-05-14T19:56:23.551Z,99.90
2023-05-14T19:58:51.666Z,99.90
2023-05-14T20:01:19.340Z,99.90
2023-05-14T20:03:46.911Z,99.90
2023-05-14T20:06:14.275Z,99.90
2023-05-14T20:08:41.278Z,99.90
2023-05-14T20:11:08.147Z,99.90
2023-05-14T20:13:36.452Z,99.90
2023-05-14T20:16:03.480Z,99.90
2023-05-14T20:18:30.493Z,99.90
2023-05-14T20:20:57.379Z,99.90
2023-05-14T20:23:24.278Z,99.90
2023-05-14T20:25:51.739Z,99.90
2023-05-14T20:28:18.643Z,99.90
2023-05-14T20:30:45.714Z,99.90
2023-05-14T20:33:13.805Z,99.90
2023-05-14T20:35:43.855Z,99.90
2023-05-14T20:38:12.736Z,99.90
2023-05-14T20:40:40.168Z,99.90
2023-05-14T20:43:07.065Z,99.90
2023-05-14T20:45:34.050Z,99.90
2023-05-14T20:48:01.007Z,99.90
2023-05-14T20:50:28.093Z,99.90
2023-05-14T20:52:55.813Z,99.90
2023-05-14T20:55:23.207Z,99.90
2023-05-14T20:57:50.652Z,99.90
2023-05-14T21:00:18.371Z,99.90
2023-05-14T21:02:45.567Z,99.90
2023-05-14T21:05:13.956Z,99.90
2023-05-14T21:07:40.993Z,99.90
2023-05-14T21:10:09.938Z,99.90
2023-05-14T21:12:37.019Z,99.90
2023-05-14T21:15:04.444Z,99.90
2023-05-14T21:17:31.441Z,99.90
2023-05-14T21:19:58.375Z,99.90
2023-05-14T21:22:27.769Z,99.90
2023-05-14T21:24:55.713Z,99.90
2023-05-14T21:27:23.265Z,99.90
2023-05-14T21:29:50.271Z,99.90
2023-05-14T21:32:17.346Z,99.90
2023-05-14T21:34:44.231Z,99.90
2023-05-14T21:37:11.196Z,99.90
2023-05-14T21:39:38.111Z,99.90
2023-05-14T21:42:05.322Z,99.90
2023-05-14T21:44:32.210Z,99.90
2023-05-14T21:46:59.627Z,99.90
2023-05-14T21:49:26.529Z,99.90
2023-05-14T21:51:54.568Z,99.90
2023-05-14T21:54:21.596Z,99.90
2023-05-14T21:56:48.644Z,99.90
2023-05-14T21:59:15.728Z,99.90
2023-05-14T22:02:04.903Z,99.90
2023-05-14T22:04:29.878Z,99.90
2023-05-14T22:06:56.860Z,99.90
2023-05-14T22:09:23.811Z,99.90
2023-05-14T22:11:50.633Z,99.90
2023-05-14T22:14:17.462Z,99.90
2023-05-14T22:16:44.472Z,99.90
2023-05-14T22:19:11.947Z,99.90
2023-05-14T22:21:39.370Z,99.90
2023-05-14T22:24:06.696Z,99.90
2023-05-14T22:26:34.375Z,99.90
2023-05-14T22:29:01.254Z,99.90
2023-05-14T22:31:28.153Z,99.90
2023-05-14T22:33:55.010Z,99.90
2023-05-14T22:36:21.882Z,99.90
2023-05-14T22:38:48.760Z,99.90
2023-05-14T22:41:17.560Z,99.90
2023-05-14T22:43:44.516Z,99.90
2023-05-14T22:46:11.620Z,99.90
2023-05-14T22:48:38.497Z,99.90
2023-05-14T22:51:05.535Z,99.90
2023-05-14T22:53:32.416Z,99.90
2023-05-14T22:55:59.534Z,99.90
2023-05-14T22:58:26.480Z,99.90
2023-05-14T23:00:53.372Z,99.90
2023-05-14T23:03:20.307Z,99.90
2023-05-14T23:05:47.131Z,99.90
2023-05-14T23:08:14.095Z,99.90
2023-05-14T23:10:41.065Z,99.90
2023-05-14T23:13:08.104Z,99.90
2023-05-14T23:15:35.148Z,99.90
2023-05-14T23:18:02.499Z,99.90
2023-05-14T23:20:29.430Z,99.90
2023-05-14T23:22:56.308Z,99.90
2023-05-14T23:25:23.446Z,99.90
2023-05-14T23:27:50.465Z,99.90
2023-05-14T23:30:17.526Z,99.90
2023-05-14T23:32:44.430Z,99.90
2023-05-14T23:35:11.407Z,99.90
2023-05-14T23:37:42.514Z,99.90
2023-05-14T23:40:10.163Z,99.90
2023-05-14T23:42:36.977Z,99.90
2023-05-14T23:45:05.279Z,99.90
2023-05-14T23:47:32.279Z,99.90
2023-05-14T23:49:59.299Z,99.90
2023-05-14T23:52:26.258Z,99.90
2023-05-14T23:54:53.545Z,99.90
2023-05-14T23:57:21.588Z,99.90
2023-05-14T23:59:48.486Z,99.90
